sensor_id;sensor_type;location;lat;lon;timestamp;temperature;humidity
11762;DHT22;5938;47.098;15.474;2022-08-19T00:02:59;16.80;99.90
11762;DHT22;5938;47.098;15.474;2022-08-19T00:07:03;16.80;99.90
11762;DHT22;5938;47.098;15.474;2022-08-19T00:11:07;16.70;99.90
11762;DHT22;5938;47.098;15.474;2022-08-19T00:15:21;16.60;99.90
11762;DHT22;5938;47.098;15.474;2022-08-19T00:19:25;16.50;99.90
11762;DHT22;5938;47.098;15.474;2022-08-19T00:23:29;16.50;99.90
11762;DHT22;5938;47.098;15.474;2022-08-19T00:27:33;16.50;99.90
11762;DHT22;5938;47.098;15.474;2022-08-19T00:31:37;16.50;99.90
11762;DHT22;5938;47.098;15.474;2022-08-19T00:35:42;16.50;99.90
11762;DHT22;5938;47.098;15.474;2022-08-19T00:39:45;16.40;99.90
11762;DHT22;5938;47.098;15.474;2022-08-19T00:44:03;16.30;99.90
11762;DHT22;5938;47.098;15.474;2022-08-19T00:48:06;16.30;99.90
11762;DHT22;5938;47.098;15.474;2022-08-19T00:52:20;16.30;99.90
11762;DHT22;5938;47.098;15.474;2022-08-19T00:56:24;16.30;99.90
11762;DHT22;5938;47.098;15.474;2022-08-19T01:00:30;16.20;99.90
11762;DHT22;5938;47.098;15.474;2022-08-19T01:04:34;16.20;99.90
11762;DHT22;5938;47.098;15.474;2022-08-19T01:08:39;16.20;99.90
11762;DHT22;5938;47.098;15.474;2022-08-19T01:12:42;16.20;99.90
11762;DHT22;5938;47.098;15.474;2022-08-19T01:16:46;16.20;99.90
11762;DHT22;5938;47.098;15.474;2022-08-19T01:20:50;16.30;99.90
11762;DHT22;5938;47.098;15.474;2022-08-19T01:24:56;16.40;99.90
11762;DHT22;5938;47.098;15.474;2022-08-19T01:29:00;16.50;99.90
11762;DHT22;5938;47.098;15.474;2022-08-19T01:33:06;16.80;99.90
11762;DHT22;5938;47.098;15.474;2022-08-19T01:37:10;17.00;99.90
11762;DHT22;5938;47.098;15.474;2022-08-19T01:41:27;17.00;99.90
11762;DHT22;5938;47.098;15.474;2022-08-19T01:45:32;16.90;99.90
11762;DHT22;5938;47.098;15.474;2022-08-19T01:49:36;16.80;99.90
11762;DHT22;5938;47.098;15.474;2022-08-19T01:53:41;16.70;99.90
11762;DHT22;5938;47.098;15.474;2022-08-19T01:57:53;16.60;99.90
11762;DHT22;5938;47.098;15.474;2022-08-19T02:01:58;16.50;99.90
11762;DHT22;5938;47.098;15.474;2022-08-19T02:06:03;16.40;99.90
11762;DHT22;5938;47.098;15.474;2022-08-19T02:10:11;16.40;99.90
11762;DHT22;5938;47.098;15.474;2022-08-19T02:14:19;16.30;99.90
11762;DHT22;5938;47.098;15.474;2022-08-19T02:18:22;16.30;99.90
11762;DHT22;5938;47.098;15.474;2022-08-19T02:22:28;16.20;99.90
11762;DHT22;5938;47.098;15.474;2022-08-19T02:26:32;16.20;99.90
11762;DHT22;5938;47.098;15.474;2022-08-19T02:30:37;16.30;99.90
11762;DHT22;5938;47.098;15.474;2022-08-19T02:34:41;16.20;99.90
11762;DHT22;5938;47.098;15.474;2022-08-19T02:38:46;16.30;99.90
11762;DHT22;5938;47.098;15.474;2022-08-19T02:42:56;16.40;99.90
11762;DHT22;5938;47.098;15.474;2022-08-19T02:47:01;16.40;99.90
11762;DHT22;5938;47.098;15.474;2022-08-19T02:51:06;16.40;99.90
11762;DHT22;5938;47.098;15.474;2022-08-19T02:55:09;16.40;99.90
11762;DHT22;5938;47.098;15.474;2022-08-19T02:59:13;16.40;99.90
11762;DHT22;5938;47.098;15.474;2022-08-19T03:03:18;16.40;99.90
11762;DHT22;5938;47.098;15.474;2022-08-19T03:07:22;16.40;99.90
11762;DHT22;5938;47.098;15.474;2022-08-19T03:11:28;16.40;99.90
11762;DHT22;5938;47.098;15.474;2022-08-19T03:15:33;16.40;99.90
11762;DHT22;5938;47.098;15.474;2022-08-19T03:19:39;16.40;99.90
11762;DHT22;5938;47.098;15.474;2022-08-19T03:23:42;16.50;99.90
11762;DHT22;5938;47.098;15.474;2022-08-19T03:27:46;16.40;99.90
11762;DHT22;5938;47.098;15.474;2022-08-19T03:31:50;16.40;99.90
11762;DHT22;5938;47.098;15.474;2022-08-19T03:36:08;16.40;99.90
11762;DHT22;5938;47.098;15.474;2022-08-19T03:40:12;16.40;99.90
11762;DHT22;5938;47.098;15.474;2022-08-19T03:44:20;16.50;99.90
11762;DHT22;5938;47.098;15.474;2022-08-19T03:48:24;16.60;99.90
11762;DHT22;5938;47.098;15.474;2022-08-19T03:52:29;16.70;99.90
11762;DHT22;5938;47.098;15.474;2022-08-19T03:56:34;16.70;99.90
11762;DHT22;5938;47.098;15.474;2022-08-19T04:00:41;16.80;99.90
11762;DHT22;5938;47.098;15.474;2022-08-19T04:04:44;17.10;99.90
11762;DHT22;5938;47.098;15.474;2022-08-19T04:08:52;17.50;99.90
11762;DHT22;5938;47.098;15.474;2022-08-19T04:12:56;17.90;99.90
11762;DHT22;5938;47.098;15.474;2022-08-19T04:17:00;18.10;99.90
11762;DHT22;5938;47.098;15.474;2022-08-19T04:21:06;18.20;99.90
11762;DHT22;5938;47.098;15.474;2022-08-19T04:25:12;18.40;99.90
11762;DHT22;5938;47.098;15.474;2022-08-19T04:29:17;18.70;99.90
11762;DHT22;5938;47.098;15.474;2022-08-19T04:33:25;19.00;99.90
11762;DHT22;5938;47.098;15.474;2022-08-19T04:37:31;19.10;99.90
11762;DHT22;5938;47.098;15.474;2022-08-19T04:41:38;19.20;99.90
11762;DHT22;5938;47.098;15.474;2022-08-19T04:46:05;19.40;99.90
11762;DHT22;5938;47.098;15.474;2022-08-19T04:50:10;19.70;99.90
11762;DHT22;5938;47.098;15.474;2022-08-19T04:54:15;19.80;99.90
11762;DHT22;5938;47.098;15.474;2022-08-19T04:58:41;19.90;99.90
11762;DHT22;5938;47.098;15.474;2022-08-19T05:02:45;19.90;99.90
11762;DHT22;5938;47.098;15.474;2022-08-19T05:06:51;19.90;99.90
11762;DHT22;5938;47.098;15.474;2022-08-19T05:11:07;19.70;99.90
11762;DHT22;5938;47.098;15.474;2022-08-19T05:15:16;19.80;99.90
11762;DHT22;5938;47.098;15.474;2022-08-19T05:19:20;19.90;99.90
11762;DHT22;5938;47.098;15.474;2022-08-19T05:23:53;20.00;99.90
11762;DHT22;5938;47.098;15.474;2022-08-19T05:27:57;20.10;99.90
11762;DHT22;5938;47.098;15.474;2022-08-19T05:32:04;20.30;99.90
11762;DHT22;5938;47.098;15.474;2022-08-19T05:36:11;20.40;99.90
11762;DHT22;5938;47.098;15.474;2022-08-19T05:40:15;20.50;99.90
11762;DHT22;5938;47.098;15.474;2022-08-19T05:44:23;20.80;99.90
11762;DHT22;5938;47.098;15.474;2022-08-19T05:48:29;21.00;99.90
11762;DHT22;5938;47.098;15.474;2022-08-19T05:52:33;21.20;99.90
11762;DHT22;5938;47.098;15.474;2022-08-19T05:56:38;21.30;99.90
11762;DHT22;5938;47.098;15.474;2022-08-19T06:00:43;21.40;99.90
11762;DHT22;5938;47.098;15.474;2022-08-19T06:04:48;21.60;99.90
11762;DHT22;5938;47.098;15.474;2022-08-19T06:08:52;21.60;99.90
11762;DHT22;5938;47.098;15.474;2022-08-19T06:12:56;21.60;99.90
11762;DHT22;5938;47.098;15.474;2022-08-19T06:17:02;21.50;99.90
11762;DHT22;5938;47.098;15.474;2022-08-19T06:21:10;21.50;99.90
11762;DHT22;5938;47.098;15.474;2022-08-19T06:25:15;21.40;99.90
11762;DHT22;5938;47.098;15.474;2022-08-19T06:29:21;21.50;99.90
11762;DHT22;5938;47.098;15.474;2022-08-19T06:33:26;21.70;99.90
11762;DHT22;5938;47.098;15.474;2022-08-19T06:37:34;22.00;99.50
11762;DHT22;5938;47.098;15.474;2022-08-19T06:41:44;22.20;99.90
11762;DHT22;5938;47.098;15.474;2022-08-19T06:45:53;22.40;98.80
11762;DHT22;5938;47.098;15.474;2022-08-19T06:50:00;22.40;98.50
11762;DHT22;5938;47.098;15.474;2022-08-19T06:54:09;22.80;98.80
11762;DHT22;5938;47.098;15.474;2022-08-19T06:58:22;23.20;97.80
11762;DHT22;5938;47.098;15.474;2022-08-19T07:02:28;23.60;96.90
11762;DHT22;5938;47.098;15.474;2022-08-19T07:06:32;23.70;96.90
11762;DHT22;5938;47.098;15.474;2022-08-19T07:10:47;23.70;96.60
11762;DHT22;5938;47.098;15.474;2022-08-19T07:14:51;23.40;97.20
11762;DHT22;5938;47.098;15.474;2022-08-19T07:18:55;23.20;97.10
11762;DHT22;5938;47.098;15.474;2022-08-19T07:23:00;23.00;97.80
11762;DHT22;5938;47.098;15.474;2022-08-19T07:27:09;22.90;99.30
11762;DHT22;5938;47.098;15.474;2022-08-19T07:31:18;22.50;99.50
11762;DHT22;5938;47.098;15.474;2022-08-19T07:35:25;22.30;99.80
11762;DHT22;5938;47.098;15.474;2022-08-19T07:39:33;21.90;99.90
11762;DHT22;5938;47.098;15.474;2022-08-19T07:43:40;21.70;99.90
11762;DHT22;5938;47.098;15.474;2022-08-19T07:47:45;21.40;99.90
11762;DHT22;5938;47.098;15.474;2022-08-19T07:51:54;20.90;99.90
11762;DHT22;5938;47.098;15.474;2022-08-19T07:55:58;20.40;99.90
11762;DHT22;5938;47.098;15.474;2022-08-19T08:00:10;20.00;99.90
11762;DHT22;5938;47.098;15.474;2022-08-19T08:04:14;19.80;99.90
11762;DHT22;5938;47.098;15.474;2022-08-19T08:08:35;19.70;99.90
11762;DHT22;5938;47.098;15.474;2022-08-19T08:12:56;19.50;99.90
11762;DHT22;5938;47.098;15.474;2022-08-19T08:17:14;19.30;99.90
11762;DHT22;5938;47.098;15.474;2022-08-19T08:21:38;19.30;99.90
11762;DHT22;5938;47.098;15.474;2022-08-19T08:25:47;19.20;99.90
11762;DHT22;5938;47.098;15.474;2022-08-19T08:29:51;19.20;99.90
11762;DHT22;5938;47.098;15.474;2022-08-19T08:33:57;19.20;99.90
11762;DHT22;5938;47.098;15.474;2022-08-19T08:38:01;19.20;99.90
11762;DHT22;5938;47.098;15.474;2022-08-19T08:42:08;19.40;99.90
11762;DHT22;5938;47.098;15.474;2022-08-19T08:46:22;19.40;99.90
11762;DHT22;5938;47.098;15.474;2022-08-19T08:50:38;19.40;99.90
11762;DHT22;5938;47.098;15.474;2022-08-19T08:54:47;19.40;99.90
11762;DHT22;5938;47.098;15.474;2022-08-19T08:58:59;19.60;99.90
11762;DHT22;5938;47.098;15.474;2022-08-19T09:03:07;19.80;99.90
11762;DHT22;5938;47.098;15.474;2022-08-19T09:07:24;20.00;99.90
11762;DHT22;5938;47.098;15.474;2022-08-19T09:11:48;20.20;99.90
11762;DHT22;5938;47.098;15.474;2022-08-19T09:15:56;20.30;99.90
11762;DHT22;5938;47.098;15.474;2022-08-19T09:20:06;20.50;99.90
11762;DHT22;5938;47.098;15.474;2022-08-19T09:24:16;20.60;99.90
11762;DHT22;5938;47.098;15.474;2022-08-19T09:28:21;20.60;99.90
11762;DHT22;5938;47.098;15.474;2022-08-19T09:32:28;20.70;99.90
11762;DHT22;5938;47.098;15.474;2022-08-19T09:36:33;20.70;99.90
11762;DHT22;5938;47.098;15.474;2022-08-19T09:40:41;21.00;99.90
11762;DHT22;5938;47.098;15.474;2022-08-19T09:44:45;21.60;99.90
11762;DHT22;5938;47.098;15.474;2022-08-19T09:48:50;22.60;99.90
11762;DHT22;5938;47.098;15.474;2022-08-19T09:52:54;23.90;99.90
11762;DHT22;5938;47.098;15.474;2022-08-19T09:57:00;24.00;99.90
11762;DHT22;5938;47.098;15.474;2022-08-19T10:01:14;24.50;99.90
11762;DHT22;5938;47.098;15.474;2022-08-19T10:05:56;24.30;99.90
11762;DHT22;5938;47.098;15.474;2022-08-19T10:10:00;24.70;99.90
11762;DHT22;5938;47.098;15.474;2022-08-19T10:14:05;24.30;99.90
11762;DHT22;5938;47.098;15.474;2022-08-19T10:18:09;24.30;99.90
11762;DHT22;5938;47.098;15.474;2022-08-19T10:22:14;24.10;99.90
11762;DHT22;5938;47.098;15.474;2022-08-19T10:26:23;24.00;99.90
11762;DHT22;5938;47.098;15.474;2022-08-19T10:30:31;24.10;99.90
11762;DHT22;5938;47.098;15.474;2022-08-19T10:34:35;24.10;99.90
11762;DHT22;5938;47.098;15.474;2022-08-19T10:38:51;24.10;99.90
11762;DHT22;5938;47.098;15.474;2022-08-19T10:42:59;23.60;99.90
11762;DHT22;5938;47.098;15.474;2022-08-19T10:47:05;23.80;99.90
11762;DHT22;5938;47.098;15.474;2022-08-19T10:51:27;24.30;99.90
11762;DHT22;5938;47.098;15.474;2022-08-19T10:55:50;25.30;99.90
11762;DHT22;5938;47.098;15.474;2022-08-19T11:00:12;26.30;99.90
11762;DHT22;5938;47.098;15.474;2022-08-19T11:04:18;26.50;99.30
11762;DHT22;5938;47.098;15.474;2022-08-19T11:08:21;26.30;99.90
11762;DHT22;5938;47.098;15.474;2022-08-19T11:12:28;26.30;99.90
11762;DHT22;5938;47.098;15.474;2022-08-19T11:16:32;27.40;97.80
11762;DHT22;5938;47.098;15.474;2022-08-19T11:20:36;27.70;97.60
11762;DHT22;5938;47.098;15.474;2022-08-19T11:24:40;27.30;97.00
11762;DHT22;5938;47.098;15.474;2022-08-19T11:28:43;27.90;92.90
11762;DHT22;5938;47.098;15.474;2022-08-19T11:32:47;28.00;91.70
11762;DHT22;5938;47.098;15.474;2022-08-19T11:36:53;28.50;90.60
11762;DHT22;5938;47.098;15.474;2022-08-19T11:41:01;27.90;91.60
11762;DHT22;5938;47.098;15.474;2022-08-19T11:45:05;27.00;93.60
11762;DHT22;5938;47.098;15.474;2022-08-19T11:49:09;27.10;94.80
11762;DHT22;5938;47.098;15.474;2022-08-19T11:53:17;27.20;92.40
11762;DHT22;5938;47.098;15.474;2022-08-19T11:57:22;27.80;93.50
11762;DHT22;5938;47.098;15.474;2022-08-19T12:01:26;28.50;89.90
11762;DHT22;5938;47.098;15.474;2022-08-19T12:05:30;28.80;89.10
11762;DHT22;5938;47.098;15.474;2022-08-19T12:09:38;29.00;88.20
11762;DHT22;5938;47.098;15.474;2022-08-19T12:13:43;29.30;90.90
11762;DHT22;5938;47.098;15.474;2022-08-19T12:17:48;30.50;81.00
11762;DHT22;5938;47.098;15.474;2022-08-19T12:21:51;30.50;85.00
11762;DHT22;5938;47.098;15.474;2022-08-19T12:25:58;30.20;77.40
11762;DHT22;5938;47.098;15.474;2022-08-19T12:30:02;29.70;79.10
11762;DHT22;5938;47.098;15.474;2022-08-19T12:34:07;30.30;83.10
11762;DHT22;5938;47.098;15.474;2022-08-19T12:38:11;31.90;79.10
11762;DHT22;5938;47.098;15.474;2022-08-19T12:42:16;32.80;79.00
11762;DHT22;5938;47.098;15.474;2022-08-19T12:46:19;32.40;75.00
11762;DHT22;5938;47.098;15.474;2022-08-19T12:50:27;31.80;76.10
11762;DHT22;5938;47.098;15.474;2022-08-19T12:54:30;32.90;73.90
11762;DHT22;5938;47.098;15.474;2022-08-19T12:58:35;35.20;69.30
11762;DHT22;5938;47.098;15.474;2022-08-19T13:02:39;37.80;61.70
11762;DHT22;5938;47.098;15.474;2022-08-19T13:06:43;38.90;54.90
11762;DHT22;5938;47.098;15.474;2022-08-19T13:10:46;38.00;55.40
11762;DHT22;5938;47.098;15.474;2022-08-19T13:14:51;38.30;57.10
11762;DHT22;5938;47.098;15.474;2022-08-19T13:18:55;36.70;57.20
11762;DHT22;5938;47.098;15.474;2022-08-19T13:22:59;35.30;60.20
11762;DHT22;5938;47.098;15.474;2022-08-19T13:27:02;33.00;64.80
11762;DHT22;5938;47.098;15.474;2022-08-19T13:31:07;32.00;67.10
11762;DHT22;5938;47.098;15.474;2022-08-19T13:35:28;30.80;71.20
11762;DHT22;5938;47.098;15.474;2022-08-19T13:39:31;31.40;70.50
11762;DHT22;5938;47.098;15.474;2022-08-19T13:43:35;32.20;68.70
11762;DHT22;5938;47.098;15.474;2022-08-19T13:47:40;31.40;69.90
11762;DHT22;5938;47.098;15.474;2022-08-19T13:51:46;32.50;70.10
11762;DHT22;5938;47.098;15.474;2022-08-19T13:55:50;35.10;62.50
11762;DHT22;5938;47.098;15.474;2022-08-19T13:59:55;36.00;61.20
11762;DHT22;5938;47.098;15.474;2022-08-19T14:04:00;36.30;58.60
11762;DHT22;5938;47.098;15.474;2022-08-19T14:08:03;38.30;57.20
11762;DHT22;5938;47.098;15.474;2022-08-19T14:12:07;40.60;53.00
11762;DHT22;5938;47.098;15.474;2022-08-19T14:16:12;40.20;51.60
11762;DHT22;5938;47.098;15.474;2022-08-19T14:20:18;40.00;52.60
11762;DHT22;5938;47.098;15.474;2022-08-19T14:24:27;39.10;53.70
11762;DHT22;5938;47.098;15.474;2022-08-19T14:28:30;38.00;54.30
11762;DHT22;5938;47.098;15.474;2022-08-19T14:32:34;38.60;54.10
11762;DHT22;5938;47.098;15.474;2022-08-19T14:36:39;39.70;52.00
11762;DHT22;5938;47.098;15.474;2022-08-19T14:40:44;39.50;52.80
11762;DHT22;5938;47.098;15.474;2022-08-19T14:44:47;39.60;52.30
11762;DHT22;5938;47.098;15.474;2022-08-19T14:48:51;39.80;50.90
11762;DHT22;5938;47.098;15.474;2022-08-19T14:53:00;40.60;50.80
11762;DHT22;5938;47.098;15.474;2022-08-19T14:57:14;40.60;49.80
11762;DHT22;5938;47.098;15.474;2022-08-19T15:01:18;38.20;54.10
11762;DHT22;5938;47.098;15.474;2022-08-19T15:05:22;37.70;54.80
11762;DHT22;5938;47.098;15.474;2022-08-19T15:09:27;39.30;52.10
11762;DHT22;5938;47.098;15.474;2022-08-19T15:13:30;38.40;54.60
11762;DHT22;5938;47.098;15.474;2022-08-19T15:17:35;34.60;60.20
11762;DHT22;5938;47.098;15.474;2022-08-19T15:21:46;32.40;66.20
11762;DHT22;5938;47.098;15.474;2022-08-19T15:25:51;31.30;69.20
11762;DHT22;5938;47.098;15.474;2022-08-19T15:29:57;30.30;70.60
11762;DHT22;5938;47.098;15.474;2022-08-19T15:34:03;30.70;73.10
11762;DHT22;5938;47.098;15.474;2022-08-19T15:38:08;30.50;74.20
11762;DHT22;5938;47.098;15.474;2022-08-19T15:42:13;29.80;73.10
11762;DHT22;5938;47.098;15.474;2022-08-19T15:46:32;29.10;77.70
11762;DHT22;5938;47.098;15.474;2022-08-19T15:50:35;28.30;83.50
11762;DHT22;5938;47.098;15.474;2022-08-19T15:54:40;27.60;86.60
11762;DHT22;5938;47.098;15.474;2022-08-19T15:58:45;27.30;89.50
11762;DHT22;5938;47.098;15.474;2022-08-19T16:03:05;27.10;90.30
11762;DHT22;5938;47.098;15.474;2022-08-19T16:07:28;26.90;91.40
11762;DHT22;5938;47.098;15.474;2022-08-19T16:11:33;26.60;91.40
11762;DHT22;5938;47.098;15.474;2022-08-19T16:15:41;26.50;92.70
11762;DHT22;5938;47.098;15.474;2022-08-19T16:19:45;26.30;92.90
11762;DHT22;5938;47.098;15.474;2022-08-19T16:23:54;26.00;93.30
11762;DHT22;5938;47.098;15.474;2022-08-19T16:27:58;25.80;94.10
11762;DHT22;5938;47.098;15.474;2022-08-19T16:32:10;25.60;94.20
11762;DHT22;5938;47.098;15.474;2022-08-19T16:36:15;25.40;94.80
11762;DHT22;5938;47.098;15.474;2022-08-19T16:40:18;25.20;95.30
11762;DHT22;5938;47.098;15.474;2022-08-19T16:44:22;24.80;96.20
11762;DHT22;5938;47.098;15.474;2022-08-19T16:48:31;24.50;95.70
11762;DHT22;5938;47.098;15.474;2022-08-19T16:52:35;24.40;95.60
11762;DHT22;5938;47.098;15.474;2022-08-19T16:56:38;24.30;96.70
11762;DHT22;5938;47.098;15.474;2022-08-19T17:00:41;24.20;97.10
11762;DHT22;5938;47.098;15.474;2022-08-19T17:04:46;24.20;97.10
11762;DHT22;5938;47.098;15.474;2022-08-19T17:09:00;24.20;97.70
11762;DHT22;5938;47.098;15.474;2022-08-19T17:13:04;24.00;98.70
11762;DHT22;5938;47.098;15.474;2022-08-19T17:17:07;23.70;99.90
11762;DHT22;5938;47.098;15.474;2022-08-19T17:21:15;23.20;99.90
11762;DHT22;5938;47.098;15.474;2022-08-19T17:25:18;22.70;99.90
11762;DHT22;5938;47.098;15.474;2022-08-19T17:29:22;22.20;99.90
11762;DHT22;5938;47.098;15.474;2022-08-19T17:33:25;21.80;99.90
11762;DHT22;5938;47.098;15.474;2022-08-19T17:37:30;21.60;99.90
11762;DHT22;5938;47.098;15.474;2022-08-19T17:41:33;21.40;99.90
11762;DHT22;5938;47.098;15.474;2022-08-19T17:45:38;21.10;99.90
11762;DHT22;5938;47.098;15.474;2022-08-19T17:49:42;20.90;99.90
11762;DHT22;5938;47.098;15.474;2022-08-19T17:53:47;20.80;99.90
11762;DHT22;5938;47.098;15.474;2022-08-19T17:57:51;20.70;99.90
11762;DHT22;5938;47.098;15.474;2022-08-19T18:01:54;20.60;99.90
11762;DHT22;5938;47.098;15.474;2022-08-19T18:05:58;20.50;99.90
11762;DHT22;5938;47.098;15.474;2022-08-19T18:10:03;20.40;99.90
11762;DHT22;5938;47.098;15.474;2022-08-19T18:14:07;20.40;99.90
11762;DHT22;5938;47.098;15.474;2022-08-19T18:18:10;20.50;99.90
11762;DHT22;5938;47.098;15.474;2022-08-19T18:22:22;20.40;99.90
11762;DHT22;5938;47.098;15.474;2022-08-19T18:26:27;20.40;99.90
11762;DHT22;5938;47.098;15.474;2022-08-19T18:30:31;20.30;99.90
11762;DHT22;5938;47.098;15.474;2022-08-19T18:34:35;20.30;99.90
11762;DHT22;5938;47.098;15.474;2022-08-19T18:38:38;20.20;99.90
11762;DHT22;5938;47.098;15.474;2022-08-19T18:43:01;20.20;99.90
11762;DHT22;5938;47.098;15.474;2022-08-19T18:47:18;20.20;99.90
11762;DHT22;5938;47.098;15.474;2022-08-19T18:51:41;20.20;99.90
11762;DHT22;5938;47.098;15.474;2022-08-19T18:55:45;20.20;99.90
11762;DHT22;5938;47.098;15.474;2022-08-19T18:59:53;20.20;99.90
11762;DHT22;5938;47.098;15.474;2022-08-19T19:04:03;20.10;99.90
11762;DHT22;5938;47.098;15.474;2022-08-19T19:08:07;20.10;99.90
11762;DHT22;5938;47.098;15.474;2022-08-19T19:12:11;20.10;99.90
11762;DHT22;5938;47.098;15.474;2022-08-19T19:16:16;20.10;99.90
11762;DHT22;5938;47.098;15.474;2022-08-19T19:20:25;20.10;99.90
11762;DHT22;5938;47.098;15.474;2022-08-19T19:24:39;20.10;99.90
11762;DHT22;5938;47.098;15.474;2022-08-19T19:28:45;20.10;99.90
11762;DHT22;5938;47.098;15.474;2022-08-19T19:32:52;20.10;99.90
11762;DHT22;5938;47.098;15.474;2022-08-19T19:36:57;20.20;99.90
11762;DHT22;5938;47.098;15.474;2022-08-19T19:41:02;20.00;99.90
11762;DHT22;5938;47.098;15.474;2022-08-19T19:45:06;19.90;99.90
11762;DHT22;5938;47.098;15.474;2022-08-19T19:49:12;19.80;99.90
11762;DHT22;5938;47.098;15.474;2022-08-19T19:53:16;19.80;99.90
11762;DHT22;5938;47.098;15.474;2022-08-19T19:57:19;19.80;99.90
11762;DHT22;5938;47.098;15.474;2022-08-19T20:01:24;19.70;99.90
11762;DHT22;5938;47.098;15.474;2022-08-19T20:05:29;19.70;99.90
11762;DHT22;5938;47.098;15.474;2022-08-19T20:09:33;19.60;99.90
11762;DHT22;5938;47.098;15.474;2022-08-19T20:13:57;19.70;99.90
11762;DHT22;5938;47.098;15.474;2022-08-19T20:18:02;19.60;99.90
11762;DHT22;5938;47.098;15.474;2022-08-19T20:22:07;19.60;99.90
11762;DHT22;5938;47.098;15.474;2022-08-19T20:26:11;19.50;99.90
11762;DHT22;5938;47.098;15.474;2022-08-19T20:30:33;19.40;99.90
11762;DHT22;5938;47.098;15.474;2022-08-19T20:34:40;19.30;99.90
11762;DHT22;5938;47.098;15.474;2022-08-19T20:38:47;19.30;99.90
11762;DHT22;5938;47.098;15.474;2022-08-19T20:42:51;19.30;99.90
11762;DHT22;5938;47.098;15.474;2022-08-19T20:46:55;19.30;99.90
11762;DHT22;5938;47.098;15.474;2022-08-19T20:51:05;19.30;99.90
11762;DHT22;5938;47.098;15.474;2022-08-19T20:55:11;19.30;99.90
11762;DHT22;5938;47.098;15.474;2022-08-19T20:59:19;19.30;99.90
11762;DHT22;5938;47.098;15.474;2022-08-19T21:03:24;19.20;99.90
11762;DHT22;5938;47.098;15.474;2022-08-19T21:07:28;19.20;99.90
11762;DHT22;5938;47.098;15.474;2022-08-19T21:11:41;19.30;99.90
11762;DHT22;5938;47.098;15.474;2022-08-19T21:15:45;19.20;99.90
11762;DHT22;5938;47.098;15.474;2022-08-19T21:19:49;19.20;99.90
11762;DHT22;5938;47.098;15.474;2022-08-19T21:23:52;19.10;99.90
11762;DHT22;5938;47.098;15.474;2022-08-19T21:27:57;19.10;99.90
11762;DHT22;5938;47.098;15.474;2022-08-19T21:32:00;19.00;99.90
11762;DHT22;5938;47.098;15.474;2022-08-19T21:36:05;18.90;99.90
11762;DHT22;5938;47.098;15.474;2022-08-19T21:40:09;18.90;99.90
11762;DHT22;5938;47.098;15.474;2022-08-19T21:44:14;18.80;99.90
11762;DHT22;5938;47.098;15.474;2022-08-19T21:48:18;18.70;99.90
11762;DHT22;5938;47.098;15.474;2022-08-19T21:52:22;18.60;99.90
11762;DHT22;5938;47.098;15.474;2022-08-19T21:56:25;18.50;99.90
11762;DHT22;5938;47.098;15.474;2022-08-19T22:00:31;18.40;99.90
11762;DHT22;5938;47.098;15.474;2022-08-19T22:04:36;18.40;99.90
11762;DHT22;5938;47.098;15.474;2022-08-19T22:08:42;18.40;99.90
11762;DHT22;5938;47.098;15.474;2022-08-19T22:12:45;18.50;99.90
11762;DHT22;5938;47.098;15.474;2022-08-19T22:16:54;18.40;99.90
11762;DHT22;5938;47.098;15.474;2022-08-19T22:20:57;18.40;99.90
11762;DHT22;5938;47.098;15.474;2022-08-19T22:25:04;18.40;99.90
11762;DHT22;5938;47.098;15.474;2022-08-19T22:29:07;18.50;99.90
11762;DHT22;5938;47.098;15.474;2022-08-19T22:33:17;18.40;99.90
11762;DHT22;5938;47.098;15.474;2022-08-19T22:37:23;18.40;99.90
11762;DHT22;5938;47.098;15.474;2022-08-19T22:41:26;18.40;99.90
11762;DHT22;5938;47.098;15.474;2022-08-19T22:45:30;18.40;99.90
11762;DHT22;5938;47.098;15.474;2022-08-19T22:49:35;18.40;99.90
11762;DHT22;5938;47.098;15.474;2022-08-19T22:53:42;18.30;99.90
11762;DHT22;5938;47.098;15.474;2022-08-19T22:57:46;18.30;99.90
11762;DHT22;5938;47.098;15.474;2022-08-19T23:01:50;18.20;99.90
11762;DHT22;5938;47.098;15.474;2022-08-19T23:05:56;18.10;99.90
11762;DHT22;5938;47.098;15.474;2022-08-19T23:09:59;18.10;99.90
11762;DHT22;5938;47.098;15.474;2022-08-19T23:14:03;18.10;99.90
11762;DHT22;5938;47.098;15.474;2022-08-19T23:18:09;18.10;99.90
11762;DHT22;5938;47.098;15.474;2022-08-19T23:22:16;18.00;99.90
11762;DHT22;5938;47.098;15.474;2022-08-19T23:26:20;18.00;99.90
11762;DHT22;5938;47.098;15.474;2022-08-19T23:30:23;18.00;99.90
11762;DHT22;5938;47.098;15.474;2022-08-19T23:34:28;18.00;99.90
11762;DHT22;5938;47.098;15.474;2022-08-19T23:38:33;18.00;99.90
11762;DHT22;5938;47.098;15.474;2022-08-19T23:42:39;17.90;99.90
11762;DHT22;5938;47.098;15.474;2022-08-19T23:46:42;17.90;99.90
11762;DHT22;5938;47.098;15.474;2022-08-19T23:50:56;18.00;99.90
11762;DHT22;5938;47.098;15.474;2022-08-19T23:55:03;18.00;99.90
11762;DHT22;5938;47.098;15.474;2022-08-19T23:59:08;18.00;99.90
